createdAt,value
2019-01-05T00:00:43.929Z,6.38
2019-01-05T00:01:43.940Z,6.52
2019-01-05T00:02:43.956Z,6.56
2019-01-05T00:03:43.977Z,6.4
2019-01-05T00:04:43.988Z,6.58
2019-01-05T00:05:44.010Z,6.55
2019-01-05T00:06:44.016Z,6.54
2019-01-05T00:07:44.032Z,6.55
2019-01-05T00:08:58.712Z,6.52
2019-01-05T00:09:44.063Z,6.58
2019-01-05T00:10:44.079Z,6.55
2019-01-05T00:11:44.092Z,6.62
2019-01-05T00:12:44.111Z,6.61
2019-01-05T00:13:44.123Z,6.58
2019-01-05T00:14:58.804Z,6.56
2019-01-05T00:15:44.154Z,6.58
2019-01-05T00:16:44.167Z,6.59
2019-01-05T00:17:44.182Z,6.55
2019-01-05T00:18:44.197Z,6.61
2019-01-05T00:19:44.215Z,6.62
2019-01-05T00:21:44.245Z,6.61
2019-01-05T00:22:44.267Z,6.56
2019-01-05T00:23:44.280Z,6.55
2019-01-05T00:24:44.289Z,6.67
2019-01-05T00:26:44.418Z,6.56
2019-01-05T00:27:44.339Z,6.62
2019-01-05T00:28:44.352Z,6.66
2019-01-05T00:29:44.364Z,6.64
2019-01-05T00:30:59.043Z,6.59
2019-01-05T00:31:44.494Z,6.59
2019-01-05T00:32:44.414Z,6.61
2019-01-05T00:33:45.476Z,6.55
2019-01-05T00:34:44.439Z,6.56
2019-01-05T00:35:44.453Z,6.61
2019-01-05T00:36:44.468Z,6.56
2019-01-05T00:37:44.239Z,6.58
2019-01-05T00:38:44.498Z,6.61
2019-01-05T00:40:44.534Z,6.64
2019-01-05T00:42:44.564Z,6.58
2019-01-05T00:43:44.576Z,6.61
2019-01-05T00:44:44.593Z,6.56
2019-01-05T00:45:59.271Z,6.66
2019-01-05T00:46:44.620Z,6.61
2019-01-05T00:47:44.639Z,6.58
2019-01-05T00:48:44.653Z,6.64
2019-01-05T00:49:44.674Z,6.73
2019-01-05T00:50:44.683Z,6.74
2019-01-05T00:51:44.704Z,6.71
2019-01-05T00:52:44.714Z,6.67
2019-01-05T00:53:44.733Z,6.69
2019-01-05T00:54:44.748Z,6.76
2019-01-05T00:55:59.425Z,6.71
2019-01-05T00:57:44.791Z,6.7
2019-01-05T00:58:44.803Z,6.69
2019-01-05T00:59:44.818Z,6.74
2019-01-05T01:00:44.838Z,6.74
2019-01-05T01:01:44.850Z,6.73
2019-01-05T01:02:44.867Z,6.73
2019-01-05T01:03:44.880Z,6.7
2019-01-05T01:04:44.898Z,6.74
2019-01-05T01:05:44.918Z,6.7
2019-01-05T01:06:44.927Z,6.67
2019-01-05T01:07:44.949Z,6.81
2019-01-05T01:08:44.968Z,6.66
2019-01-05T01:10:44.987Z,6.73
2019-01-05T01:11:45.016Z,6.76
2019-01-05T01:13:45.036Z,6.73
2019-01-05T01:14:45.052Z,6.71
2019-01-05T01:15:45.083Z,6.71
2019-01-05T01:16:45.079Z,6.76
2019-01-05T01:17:59.758Z,6.71
2019-01-05T01:18:45.112Z,6.79
2019-01-05T01:19:45.129Z,6.67
2019-01-05T01:20:45.142Z,6.69
2019-01-05T01:21:45.156Z,6.8
2019-01-05T01:22:45.171Z,6.77
2019-01-05T01:23:45.186Z,6.73
2019-01-05T01:24:45.199Z,6.7
2019-01-05T01:25:45.218Z,6.73
2019-01-05T01:26:45.238Z,6.71
2019-01-05T01:27:45.251Z,6.74
2019-01-05T01:28:45.266Z,6.71
2019-01-05T01:29:45.280Z,6.76
2019-01-05T01:30:59.957Z,6.79
2019-01-05T01:31:45.315Z,6.77
2019-01-05T01:32:45.328Z,6.81
2019-01-05T01:34:00.003Z,6.76
2019-01-05T01:34:45.355Z,6.79
2019-01-05T01:35:45.368Z,6.85
2019-01-05T01:36:45.385Z,6.8
2019-01-05T01:37:45.404Z,6.85
2019-01-05T01:38:45.418Z,6.73
2019-01-05T01:39:45.439Z,6.81
2019-01-05T01:40:45.446Z,6.77
2019-01-05T01:41:45.462Z,6.97
2019-01-05T01:45:45.528Z,6.88
2019-01-05T01:46:45.538Z,6.8
2019-01-05T01:47:45.559Z,6.84
2019-01-05T01:50:00.248Z,6.77
2019-01-05T01:50:45.599Z,6.81
2019-01-05T01:51:45.628Z,6.95
2019-01-05T01:52:45.629Z,6.94
2019-01-05T01:53:45.652Z,6.85
2019-01-05T01:54:45.664Z,6.91
2019-01-05T01:55:45.678Z,6.81
2019-01-05T01:56:45.694Z,6.81
2019-01-05T01:57:45.707Z,6.91
2019-01-05T01:58:45.722Z,6.92
2019-01-05T01:59:45.741Z,6.88
2019-01-05T02:00:45.754Z,6.98
2019-01-05T02:01:45.767Z,6.95
2019-01-05T02:02:45.785Z,6.99
2019-01-05T02:03:45.800Z,6.85
2019-01-05T02:05:00.477Z,6.92
2019-01-05T02:06:00.495Z,6.98
2019-01-05T02:06:45.845Z,6.97
2019-01-05T02:07:45.860Z,6.91
2019-01-05T02:08:45.881Z,6.92
2019-01-05T02:09:45.892Z,6.94
2019-01-05T02:10:45.911Z,6.98
2019-01-05T02:11:45.922Z,6.92
2019-01-05T02:12:45.939Z,6.92
2019-01-05T02:13:45.956Z,6.92
2019-01-05T02:14:45.971Z,6.89
2019-01-05T02:15:45.985Z,6.97
2019-01-05T02:16:46.001Z,6.98
2019-01-05T02:17:46.021Z,6.95
2019-01-05T02:18:46.030Z,6.97
2019-01-05T02:19:46.052Z,6.92
2019-01-05T02:21:00.725Z,6.95
2019-01-05T02:21:46.078Z,6.98
2019-01-05T02:22:46.094Z,6.97
2019-01-05T02:23:46.112Z,6.98
2019-01-05T02:24:46.124Z,6.99
2019-01-05T02:25:46.139Z,6.97
2019-01-05T02:28:46.285Z,6.97
2019-01-05T02:29:46.241Z,6.98
2019-01-05T02:30:46.220Z,6.97
2019-01-05T02:31:46.255Z,6.98
2019-01-05T02:32:46.256Z,7.03
2019-01-05T02:33:46.274Z,7.03
2019-01-05T02:34:46.286Z,6.98
2019-01-05T02:35:46.300Z,6.99
2019-01-05T02:36:46.320Z,6.95
2019-01-05T02:37:46.341Z,6.99
2019-01-05T02:38:46.348Z,7.02
2019-01-05T02:39:46.364Z,6.94
2019-01-05T02:40:46.383Z,6.95
2019-01-05T02:41:46.395Z,6.97
2019-01-05T02:42:46.414Z,7.09
2019-01-05T02:43:46.434Z,7.09
2019-01-05T02:44:46.449Z,7.06
2019-01-05T02:45:46.454Z,7.1
2019-01-05T02:46:46.466Z,7.1
2019-01-05T02:47:46.480Z,7.03
2019-01-05T02:48:46.497Z,7.05
2019-01-05T02:49:46.512Z,7.09
2019-01-05T02:50:46.536Z,7.09
2019-01-05T02:51:46.546Z,7.05
2019-01-05T02:53:01.219Z,6.98
2019-01-05T02:53:46.573Z,6.97
2019-01-05T02:54:46.587Z,7.05
2019-01-05T02:55:46.606Z,7.02
2019-01-05T02:56:46.618Z,7.13
2019-01-05T02:57:46.643Z,7.09
2019-01-05T02:58:46.658Z,7.2
2019-01-05T02:59:46.665Z,7.13
2019-01-05T03:01:46.694Z,7.1
2019-01-05T03:02:46.712Z,7.09
2019-01-05T03:03:46.736Z,7.07
2019-01-05T03:04:46.749Z,7.09
2019-01-05T03:05:46.759Z,7.06
2019-01-05T03:06:46.772Z,7.06
2019-01-05T03:07:46.791Z,7.09
2019-01-05T03:09:01.468Z,7.12
2019-01-05T03:09:46.826Z,7.16
2019-01-05T03:10:46.842Z,7.15
2019-01-05T03:11:46.851Z,7.13
2019-01-05T03:12:46.869Z,7.25
2019-01-05T03:13:46.910Z,7.13
2019-01-05T03:14:46.898Z,7.09
2019-01-05T03:17:46.969Z,7.16
2019-01-05T03:18:46.962Z,7.15
2019-01-05T03:19:46.979Z,7.15
2019-01-05T03:21:01.658Z,7.15
2019-01-05T03:21:47.047Z,7.16
2019-01-05T03:22:47.048Z,7.15
2019-01-05T03:23:47.039Z,7.12
2019-01-05T03:25:01.771Z,7.24
2019-01-05T03:25:47.072Z,7.21
2019-01-05T03:26:47.085Z,7.13
2019-01-05T03:27:47.112Z,7.15
2019-01-05T03:28:47.117Z,7.27
2019-01-05T03:29:46.891Z,7.21
2019-01-05T03:30:47.156Z,7.27
2019-01-05T03:31:47.172Z,7.21
2019-01-05T03:32:47.189Z,7.15
2019-01-05T03:33:47.194Z,7.24
2019-01-05T03:34:47.209Z,7.23
2019-01-05T03:35:47.224Z,7.24
2019-01-05T03:36:47.313Z,7.27
2019-01-05T03:38:01.922Z,7.28
2019-01-05T03:38:47.283Z,7.3
2019-01-05T03:39:47.293Z,7.25
2019-01-05T03:41:01.974Z,7.24
2019-01-05T03:41:47.324Z,7.25
2019-01-05T03:42:47.340Z,7.24
2019-01-05T03:43:47.359Z,7.28
2019-01-05T03:44:47.366Z,7.28
2019-01-05T03:45:47.384Z,7.23
2019-01-05T03:46:47.394Z,7.24
2019-01-05T03:47:47.193Z,7.35
2019-01-05T03:48:47.425Z,7.35
2019-01-05T03:50:47.457Z,7.35
2019-01-05T03:51:47.497Z,7.31
2019-01-05T03:52:47.535Z,7.25
2019-01-05T03:54:02.166Z,7.35
2019-01-05T03:54:47.525Z,7.28
2019-01-05T03:56:02.198Z,7.42
2019-01-05T03:56:47.557Z,7.35
2019-01-05T03:57:47.568Z,7.25
2019-01-05T03:58:47.581Z,7.39
2019-01-05T03:59:47.600Z,7.39
2019-01-05T04:00:47.617Z,7.34
2019-01-05T04:01:47.629Z,7.37
2019-01-05T04:02:47.646Z,7.45
2019-01-05T04:05:02.343Z,7.35
2019-01-05T04:05:47.691Z,7.45
2019-01-05T04:07:02.372Z,7.39
2019-01-05T04:07:47.730Z,7.37
2019-01-05T04:08:47.742Z,7.49
2019-01-05T04:09:47.758Z,7.42
2019-01-05T04:10:47.773Z,7.4
2019-01-05T04:11:47.545Z,7.35
2019-01-05T04:12:47.800Z,7.48
2019-01-05T04:13:47.821Z,7.35
2019-01-05T04:14:47.836Z,7.49
2019-01-05T04:15:47.847Z,7.45
2019-01-05T04:16:47.863Z,7.52
2019-01-05T04:17:47.877Z,7.42
2019-01-05T04:18:47.894Z,7.5
2019-01-05T04:19:47.912Z,7.43
2019-01-05T04:21:02.592Z,7.49
2019-01-05T04:21:47.945Z,7.46
2019-01-05T04:22:47.974Z,7.53
2019-01-05T04:23:47.982Z,7.55
2019-01-05T04:24:48.034Z,7.48
2019-01-05T04:25:48.008Z,7.5
2019-01-05T04:26:48.019Z,7.49
2019-01-05T04:28:02.699Z,7.5
2019-01-05T04:28:48.051Z,7.52
2019-01-05T04:29:48.069Z,7.58
2019-01-05T04:30:48.090Z,7.49
2019-01-05T04:31:48.101Z,7.6
2019-01-05T04:32:47.877Z,7.57
2019-01-05T04:33:48.130Z,7.53
2019-01-05T04:35:48.163Z,7.55
2019-01-05T04:36:48.175Z,7.49
2019-01-05T04:37:47.959Z,7.58
2019-01-05T04:38:48.210Z,7.63
2019-01-05T04:40:02.891Z,7.64
2019-01-05T04:40:48.294Z,7.58
2019-01-05T04:41:48.258Z,7.64
2019-01-05T04:42:48.270Z,7.64
2019-01-05T04:44:02.954Z,7.63
2019-01-05T04:44:48.301Z,7.49
2019-01-05T04:45:48.321Z,7.67
2019-01-05T04:46:48.334Z,7.55
2019-01-05T04:48:48.365Z,7.67
2019-01-05T04:49:48.393Z,7.67
2019-01-05T04:50:48.402Z,7.61
2019-01-05T04:51:48.419Z,7.64
2019-01-05T04:52:48.433Z,7.69
2019-01-05T04:55:03.125Z,7.8
2019-01-05T04:55:48.488Z,7.61
2019-01-05T04:56:48.493Z,7.67
2019-01-05T04:57:48.506Z,7.64
2019-01-05T04:58:48.519Z,7.57
2019-01-05T05:00:03.224Z,7.61
2019-01-05T05:00:48.603Z,7.57
2019-01-05T05:01:48.569Z,7.63
2019-01-05T05:02:48.919Z,7.61
2019-01-05T05:03:48.599Z,7.61
2019-01-05T05:04:48.614Z,7.6
2019-01-05T05:05:48.638Z,7.57
2019-01-05T05:06:48.650Z,7.67
2019-01-05T05:07:48.708Z,7.63
2019-01-05T05:08:48.677Z,7.79
2019-01-05T05:09:48.704Z,7.58
2019-01-05T05:10:48.709Z,7.6
2019-01-05T05:11:48.725Z,7.68
2019-01-05T05:13:03.403Z,7.58
2019-01-05T05:13:48.762Z,7.57
2019-01-05T05:14:48.775Z,7.71
2019-01-05T05:16:03.461Z,7.68
2019-01-05T05:16:48.565Z,7.64
2019-01-05T05:17:48.829Z,7.75
2019-01-05T05:18:48.834Z,7.61
2019-01-05T05:19:48.853Z,7.71
2019-01-05T05:21:48.884Z,7.71
2019-01-05T05:22:48.907Z,7.69
2019-01-05T05:23:48.921Z,7.72
2019-01-05T05:24:48.944Z,7.71
2019-01-05T05:26:03.610Z,7.69
2019-01-05T05:27:03.625Z,7.69
2019-01-05T05:27:48.987Z,7.69
2019-01-05T05:29:03.655Z,7.69
2019-01-05T05:30:03.671Z,7.63
2019-01-05T05:31:03.690Z,7.67
2019-01-05T05:31:49.060Z,7.67
2019-01-05T05:32:49.056Z,7.74
2019-01-05T05:33:49.076Z,7.63
2019-01-05T05:34:49.187Z,7.79
2019-01-05T05:35:49.104Z,7.77
2019-01-05T05:36:49.120Z,7.68
2019-01-05T05:37:49.136Z,7.77
2019-01-05T05:38:49.160Z,7.82
2019-01-05T05:39:49.165Z,7.82
2019-01-05T05:40:49.182Z,7.79
2019-01-05T05:41:49.199Z,7.8
2019-01-05T05:42:49.215Z,7.75
2019-01-05T05:43:49.231Z,7.68
2019-01-05T05:44:49.246Z,7.74
2019-01-05T05:45:49.263Z,7.77
2019-01-05T05:46:49.279Z,7.79
2019-01-05T05:47:49.300Z,7.75
2019-01-05T05:48:49.309Z,7.67
2019-01-05T05:49:49.332Z,7.72
2019-01-05T05:50:49.341Z,7.75
2019-01-05T05:51:49.374Z,7.82
2019-01-05T05:52:49.382Z,7.77
2019-01-05T05:53:49.396Z,7.75
2019-01-05T05:56:49.192Z,7.87
2019-01-05T05:57:49.453Z,7.8
2019-01-05T05:58:49.469Z,7.82
2019-01-05T05:59:49.487Z,7.86
2019-01-05T06:00:49.499Z,7.86
2019-01-05T06:01:49.517Z,7.92
2019-01-05T06:03:04.196Z,7.82
2019-01-05T06:03:49.546Z,7.8
2019-01-05T06:04:49.565Z,7.87
2019-01-05T06:05:49.580Z,7.87
2019-01-05T06:06:49.605Z,7.75
2019-01-05T06:07:49.611Z,7.69
2019-01-05T06:08:49.629Z,7.79
2019-01-05T06:09:49.652Z,7.71
2019-01-05T06:10:49.658Z,7.83
2019-01-05T06:11:49.675Z,7.8
2019-01-05T06:13:49.706Z,7.83
2019-01-05T06:14:49.727Z,7.85
2019-01-05T06:16:04.402Z,7.83
2019-01-05T06:17:04.416Z,7.83
2019-01-05T06:17:49.771Z,7.87
2019-01-05T06:19:04.205Z,7.79
2019-01-05T06:19:49.806Z,7.87
2019-01-05T06:20:49.838Z,7.89
2019-01-05T06:21:49.833Z,7.9
2019-01-05T06:22:49.852Z,7.87
2019-01-05T06:23:49.865Z,7.83
2019-01-05T06:24:49.885Z,7.9
2019-01-05T06:25:49.926Z,7.8
2019-01-05T06:26:49.916Z,7.89
2019-01-05T06:27:49.968Z,7.87
2019-01-05T06:28:49.949Z,7.97
2019-01-05T06:30:49.982Z,7.93
2019-01-05T06:31:49.996Z,7.89
2019-01-05T06:32:50.012Z,7.98
2019-01-05T06:33:50.028Z,7.92
2019-01-05T06:35:04.713Z,7.93
2019-01-05T06:35:50.065Z,7.93
2019-01-05T06:37:50.090Z,7.93
2019-01-05T06:38:50.103Z,7.97
2019-01-05T06:39:50.121Z,7.95
2019-01-05T06:40:50.135Z,8.04
2019-01-05T06:41:50.153Z,8.07
2019-01-05T06:42:50.171Z,8
2019-01-05T06:43:50.190Z,8.04
2019-01-05T06:44:50.202Z,7.92
2019-01-05T06:45:50.217Z,7.97
2019-01-05T06:47:04.898Z,7.93
2019-01-05T06:47:50.251Z,8.07
2019-01-05T06:48:50.279Z,7.9
2019-01-05T06:49:50.281Z,7.92
2019-01-05T06:51:04.961Z,7.95
2019-01-05T06:51:50.315Z,8
2019-01-05T06:52:50.329Z,7.97
2019-01-05T06:53:50.345Z,7.98
2019-01-05T06:54:50.362Z,8.01
2019-01-05T06:55:50.384Z,8.01
2019-01-05T06:56:50.398Z,8.04
2019-01-05T06:57:50.418Z,8.07
2019-01-05T06:58:50.425Z,8
2019-01-05T06:59:50.442Z,7.9
2019-01-05T07:00:50.459Z,7.97
2019-01-05T07:01:50.472Z,7.98
2019-01-05T07:02:50.496Z,7.93
2019-01-05T07:03:50.506Z,7.9
2019-01-05T07:04:50.522Z,7.9
2019-01-05T07:06:05.202Z,7.93
2019-01-05T07:06:50.555Z,8.01
2019-01-05T07:07:50.570Z,8
2019-01-05T07:08:50.587Z,7.98
2019-01-05T07:09:50.607Z,7.97
2019-01-05T07:10:50.619Z,8.04
2019-01-05T07:11:50.637Z,8
2019-01-05T07:12:50.651Z,7.95
2019-01-05T07:13:50.666Z,7.98
2019-01-05T07:14:50.691Z,8.05
2019-01-05T07:15:50.701Z,7.95
2019-01-05T07:16:50.717Z,8
2019-01-05T07:17:50.746Z,8.02
2019-01-05T07:19:05.411Z,8.01
2019-01-05T07:19:50.763Z,8.1
2019-01-05T07:20:50.781Z,8.02
2019-01-05T07:21:50.795Z,8.02
2019-01-05T07:22:50.813Z,8
2019-01-05T07:23:50.828Z,7.98
2019-01-05T07:24:50.844Z,8.05
2019-01-05T07:25:51.387Z,8.05
2019-01-05T07:26:50.875Z,7.95
2019-01-05T07:27:50.896Z,8.04
2019-01-05T07:28:50.911Z,7.92
2019-01-05T07:29:50.678Z,7.93
2019-01-05T07:32:05.622Z,7.97
2019-01-05T07:32:50.973Z,7.98
2019-01-05T07:33:50.992Z,7.98
2019-01-05T07:34:51.010Z,8.02
2019-01-05T07:35:51.021Z,8.01
2019-01-05T07:36:51.044Z,8
2019-01-05T07:38:05.718Z,8.02
2019-01-05T07:38:51.069Z,8
2019-01-05T07:39:51.089Z,8.05
2019-01-05T07:40:51.100Z,7.9
2019-01-05T07:41:51.119Z,8.02
2019-01-05T07:42:51.134Z,7.98
2019-01-05T07:43:51.151Z,8.1
2019-01-05T07:44:51.166Z,7.93
2019-01-05T07:46:51.199Z,8.04
2019-01-05T07:47:51.213Z,8.05
2019-01-05T07:48:51.244Z,8.04
2019-01-05T07:50:05.910Z,8
2019-01-05T07:50:51.264Z,8.01
2019-01-05T07:51:51.280Z,8.04
2019-01-05T07:52:51.302Z,8.07
2019-01-05T07:54:51.329Z,8.04
2019-01-05T07:55:51.341Z,7.98
2019-01-05T07:56:51.365Z,8
2019-01-05T07:57:51.375Z,7.93
2019-01-05T07:59:51.406Z,8
2019-01-05T08:00:52.296Z,8.02
2019-01-05T08:01:51.442Z,8
2019-01-05T08:02:51.460Z,8.01
2019-01-05T08:03:51.473Z,7.93
2019-01-05T08:04:51.488Z,8.02
2019-01-05T08:06:06.169Z,8.02
2019-01-05T08:06:51.520Z,8.01
2019-01-05T08:07:51.535Z,8
2019-01-05T08:08:51.552Z,8.07
2019-01-05T08:10:06.231Z,8.08
2019-01-05T08:10:51.586Z,8.04
2019-01-05T08:11:51.601Z,8.02
2019-01-05T08:12:51.616Z,8.08
2019-01-05T08:13:51.633Z,8.08
2019-01-05T08:14:51.653Z,8.08
2019-01-05T08:15:51.674Z,8.04
2019-01-05T08:16:51.686Z,8.11
2019-01-05T08:17:51.701Z,8.04
2019-01-05T08:18:51.716Z,8.05
2019-01-05T08:19:51.733Z,8.08
2019-01-05T08:20:51.746Z,8.07
2019-01-05T08:21:51.765Z,8.08
2019-01-05T08:22:51.777Z,8.16
2019-01-05T08:23:51.797Z,8.25
2019-01-05T08:24:51.814Z,8.18
2019-01-05T08:26:06.493Z,8.22
2019-01-05T08:26:51.857Z,8.26
2019-01-05T08:27:51.864Z,8.28
2019-01-05T08:28:51.878Z,8.22
2019-01-05T08:29:51.895Z,8.23
2019-01-05T08:30:51.913Z,8.25
2019-01-05T08:31:51.926Z,8.34
2019-01-05T08:32:51.945Z,8.36
2019-01-05T08:33:51.963Z,8.2
2019-01-05T08:35:51.990Z,8.33
2019-01-05T08:36:52.013Z,8.33
2019-01-05T08:37:52.024Z,8.43
2019-01-05T08:38:52.047Z,8.4
2019-01-05T08:39:52.060Z,8.38
2019-01-05T08:41:06.742Z,8.41
2019-01-05T08:41:52.095Z,8.4
2019-01-05T08:42:52.114Z,8.41
2019-01-05T08:43:52.130Z,8.38
2019-01-05T08:44:52.150Z,8.4
2019-01-05T08:45:52.161Z,8.43
2019-01-05T08:46:52.176Z,8.44
2019-01-05T08:47:52.190Z,8.36
2019-01-05T08:48:52.211Z,8.43
2019-01-05T08:49:52.222Z,8.41
2019-01-05T08:50:52.247Z,8.38
2019-01-05T08:51:52.257Z,8.43
2019-01-05T08:52:52.276Z,8.44
2019-01-05T08:53:52.294Z,8.43
2019-01-05T08:54:52.306Z,8.38
2019-01-05T08:55:58.554Z,8.34
2019-01-05T08:56:52.343Z,8.38
2019-01-05T08:57:52.356Z,8.36
2019-01-05T08:58:52.390Z,8.36
2019-01-05T08:59:52.392Z,8.37
2019-01-05T09:00:52.413Z,8.29
2019-01-05T09:01:52.425Z,8.3
2019-01-05T09:02:52.447Z,8.34
2019-01-05T09:03:52.458Z,8.36
2019-01-05T09:04:52.473Z,8.37
2019-01-05T09:05:52.495Z,8.38
2019-01-05T09:07:08.162Z,8.45
2019-01-05T09:07:52.529Z,8.38
2019-01-05T09:08:52.541Z,8.28
2019-01-05T09:09:52.562Z,8.4
2019-01-05T09:10:52.575Z,8.33
2019-01-05T09:11:52.636Z,8.26
2019-01-05T09:13:07.275Z,8.26
2019-01-05T09:13:52.628Z,8.25
2019-01-05T09:14:52.643Z,8.19
2019-01-05T09:15:52.656Z,8.29
2019-01-05T09:16:52.676Z,8.23
2019-01-05T09:17:52.692Z,8.4
2019-01-05T09:18:52.710Z,8.33
2019-01-05T09:19:53.167Z,8.44
2019-01-05T09:20:52.746Z,8.41
2019-01-05T09:21:52.760Z,8.38
2019-01-05T09:23:52.796Z,8.43
2019-01-05T09:24:52.809Z,8.43
2019-01-05T09:26:07.492Z,8.43
2019-01-05T09:26:52.846Z,8.4
2019-01-05T09:27:52.862Z,8.55
2019-01-05T09:29:07.545Z,8.48
2019-01-05T09:29:52.895Z,8.45
2019-01-05T09:30:52.914Z,8.41
2019-01-05T09:31:52.930Z,8.48
2019-01-05T09:32:52.945Z,8.37
2019-01-05T09:33:52.965Z,8.45
2019-01-05T09:34:52.983Z,8.38
2019-01-05T09:36:53.014Z,8.29
2019-01-05T09:37:53.034Z,8.25
2019-01-05T09:39:53.066Z,8.23
2019-01-05T09:40:53.086Z,8.26
2019-01-05T09:42:07.762Z,8.37
2019-01-05T09:42:53.115Z,8.36
2019-01-05T09:43:53.136Z,8.37
2019-01-05T09:45:07.817Z,8.38
2019-01-05T09:45:53.167Z,8.38
2019-01-05T09:46:53.188Z,8.5
2019-01-05T09:47:53.203Z,8.45
2019-01-05T09:48:53.218Z,8.48
2019-01-05T09:49:53.241Z,8.68
2019-01-05T09:50:53.287Z,8.65
2019-01-05T09:51:53.270Z,8.65
2019-01-05T09:52:53.288Z,8.68
2019-01-05T09:53:53.058Z,8.76
2019-01-05T09:55:53.343Z,8.66
2019-01-05T09:56:53.359Z,8.61
2019-01-05T09:58:08.037Z,8.65
2019-01-05T09:58:53.391Z,8.63
2019-01-05T09:59:53.408Z,8.65
2019-01-05T10:01:08.089Z,8.56
2019-01-05T10:01:53.443Z,8.41
2019-01-05T10:02:53.459Z,8.44
2019-01-05T10:03:53.476Z,8.45
2019-01-05T10:04:53.501Z,8.43
2019-01-05T10:05:53.516Z,8.52
2019-01-05T10:06:53.528Z,8.7
2019-01-05T10:07:53.544Z,8.55
2019-01-05T10:08:53.563Z,8.59
2019-01-05T10:09:53.585Z,8.55
2019-01-05T10:10:53.600Z,8.5
2019-01-05T10:11:53.614Z,8.66
2019-01-05T10:12:53.638Z,8.59
2019-01-05T10:13:53.649Z,8.7
2019-01-05T10:14:53.666Z,8.74
2019-01-05T10:16:08.347Z,8.89
2019-01-05T10:16:53.700Z,8.84
2019-01-05T10:17:53.724Z,8.86
2019-01-05T10:18:53.736Z,8.95
2019-01-05T10:19:53.751Z,9.05
2019-01-05T10:20:53.776Z,9.11
2019-01-05T10:21:53.790Z,8.89
2019-01-05T10:22:53.806Z,8.92
2019-01-05T10:26:08.523Z,8.98
2019-01-05T10:26:53.874Z,9.02
2019-01-05T10:27:53.892Z,9.11
2019-01-05T10:28:53.908Z,9.15
2019-01-05T10:29:53.935Z,9.23
2019-01-05T10:30:53.944Z,9.14
2019-01-05T10:31:53.964Z,9.11
2019-01-05T10:32:53.980Z,9.02
2019-01-05T10:33:53.999Z,9.1
2019-01-05T10:34:54.015Z,8.96
2019-01-05T10:35:54.169Z,8.91
2019-01-05T10:36:54.049Z,8.94
2019-01-05T10:37:54.066Z,8.83
2019-01-05T10:38:54.082Z,8.92
2019-01-05T10:39:54.107Z,8.94
2019-01-05T10:40:54.122Z,8.95
2019-01-05T10:42:53.906Z,8.92
2019-01-05T10:43:54.172Z,8.87
2019-01-05T10:45:08.853Z,9.1
2019-01-05T10:45:54.207Z,9.02
2019-01-05T10:46:54.224Z,8.96
2019-01-05T10:48:08.907Z,9.04
2019-01-05T10:48:54.260Z,9.05
2019-01-05T10:49:54.282Z,9.05
2019-01-05T10:50:54.293Z,9.08
2019-01-05T10:51:54.318Z,9.04
2019-01-05T10:52:54.327Z,9.14
2019-01-05T10:53:54.347Z,9.15
2019-01-05T10:54:54.362Z,9.18
2019-01-05T10:55:54.381Z,9.05
2019-01-05T10:57:54.427Z,8.95
2019-01-05T10:59:09.098Z,8.96
2019-01-05T10:59:54.455Z,8.94
2019-01-05T11:00:54.473Z,9.05
2019-01-05T11:01:54.496Z,9.14
2019-01-05T11:02:54.503Z,9.11
2019-01-05T11:04:09.183Z,9.14
2019-01-05T11:04:54.537Z,9.11
2019-01-05T11:05:54.559Z,9.14
2019-01-05T11:06:54.587Z,9.11
2019-01-05T11:07:54.595Z,9.05
2019-01-05T11:08:54.606Z,9.05
2019-01-05T11:09:54.623Z,9.17
2019-01-05T11:10:54.642Z,9.21
2019-01-05T11:11:54.662Z,9.28
2019-01-05T11:13:54.703Z,9.31
2019-01-05T11:14:54.717Z,9.26
2019-01-05T11:16:09.392Z,9.29
2019-01-05T11:16:54.745Z,9.38
2019-01-05T11:17:54.767Z,9.24
2019-01-05T11:18:54.778Z,9.15
2019-01-05T11:20:09.468Z,9.18
2019-01-05T11:20:54.819Z,9.17
2019-01-05T11:21:54.839Z,9.08
2019-01-05T11:22:54.854Z,9.18
2019-01-05T11:23:54.873Z,9.1
2019-01-05T11:24:54.884Z,9.13
2019-01-05T11:25:54.905Z,9.18
2019-01-05T11:26:54.918Z,9.11
2019-01-05T11:27:54.937Z,9.18
2019-01-05T11:28:54.952Z,9.14
2019-01-05T11:29:54.978Z,9.28
2019-01-05T11:30:54.995Z,9.31
2019-01-05T11:31:55.076Z,9.36
2019-01-05T11:32:55.042Z,9.36
2019-01-05T11:33:55.065Z,9.35
2019-01-05T11:36:09.749Z,9.48
2019-01-05T11:36:55.113Z,9.47
2019-01-05T11:37:55.133Z,9.4
2019-01-05T11:39:55.147Z,9.46
2019-01-05T11:42:55.199Z,9.43
2019-01-05T11:43:55.337Z,9.43
2019-01-05T11:44:55.259Z,9.47
2019-01-05T11:45:55.253Z,9.33
2019-01-05T11:46:55.268Z,9.38
2019-01-05T11:47:55.041Z,9.28
2019-01-05T11:48:55.306Z,9.24
2019-01-05T11:49:55.348Z,9.33
2019-01-05T11:51:10.003Z,9.39
2019-01-05T11:51:55.369Z,9.35
2019-01-05T11:52:55.374Z,9.33
2019-01-05T11:53:55.397Z,9.38
2019-01-05T11:54:55.435Z,9.38
2019-01-05T11:55:55.429Z,9.38
2019-01-05T11:56:55.488Z,9.43
2019-01-05T11:57:55.490Z,9.46
2019-01-05T12:00:10.168Z,9.43
2019-01-05T12:00:55.523Z,9.46
2019-01-05T12:01:55.556Z,9.46
2019-01-05T12:02:55.551Z,9.43
2019-01-05T12:04:10.242Z,9.47
2019-01-05T12:04:55.601Z,9.38
2019-01-05T12:05:55.608Z,9.43
2019-01-05T12:06:55.655Z,9.36
2019-01-05T12:07:55.670Z,9.18
2019-01-05T12:08:55.667Z,9.15
2019-01-05T12:09:55.683Z,9.23
2019-01-05T12:10:55.690Z,9.21
2019-01-05T12:12:55.736Z,9.15
2019-01-05T12:13:55.745Z,9.08
2019-01-05T12:14:55.763Z,9.21
2019-01-05T12:15:55.796Z,9.28
2019-01-05T12:16:55.797Z,9.2
2019-01-05T12:17:55.816Z,9.17
2019-01-05T12:18:55.841Z,9.08
2019-01-05T12:19:55.852Z,8.98
2019-01-05T12:20:55.867Z,8.94
2019-01-05T12:21:55.883Z,9.04
2019-01-05T12:23:10.563Z,9.1
2019-01-05T12:23:55.919Z,9.23
2019-01-05T12:24:55.933Z,9.21
2019-01-05T12:25:55.952Z,9.32
2019-01-05T12:26:55.967Z,9.28
2019-01-05T12:27:55.990Z,9.2
2019-01-05T12:28:56.003Z,9.21
2019-01-05T12:30:56.037Z,9.14
2019-01-05T12:31:56.057Z,9.05
2019-01-05T12:33:56.090Z,8.98
2019-01-05T12:34:56.157Z,8.92
2019-01-05T12:35:56.130Z,8.94
2019-01-05T12:36:56.143Z,8.89
2019-01-05T12:37:56.166Z,8.99
2019-01-05T12:39:10.840Z,8.95
2019-01-05T12:39:56.196Z,9.02
2019-01-05T12:40:56.218Z,9.01
2019-01-05T12:41:56.336Z,9.13
2019-01-05T12:42:56.259Z,8.98
2019-01-05T12:43:56.264Z,8.94
2019-01-05T12:44:56.279Z,8.84
2019-01-05T12:45:56.299Z,8.84
2019-01-05T12:46:56.314Z,8.86
2019-01-05T12:47:56.383Z,8.87
2019-01-05T12:48:56.350Z,8.92
2019-01-05T12:49:56.374Z,8.94
2019-01-05T12:50:56.511Z,8.84
2019-01-05T12:52:11.063Z,8.84
2019-01-05T12:52:56.416Z,8.83
2019-01-05T12:53:56.547Z,8.86
2019-01-05T12:55:11.113Z,8.91
2019-01-05T12:55:56.468Z,8.84
2019-01-05T12:56:56.493Z,8.91
2019-01-05T12:57:56.502Z,8.87
2019-01-05T12:58:56.518Z,8.92
2019-01-05T12:59:56.540Z,8.95
2019-01-05T13:01:56.570Z,9.08
2019-01-05T13:02:56.587Z,9.2
2019-01-05T13:04:56.623Z,9.04
2019-01-05T13:05:56.638Z,9.17
2019-01-05T13:07:11.320Z,9.1
2019-01-05T13:07:56.687Z,9.21
2019-01-05T13:08:56.691Z,9.23
2019-01-05T13:09:56.706Z,9.13
2019-01-05T13:11:11.388Z,9.21
2019-01-05T13:11:56.842Z,9.21
2019-01-05T13:12:56.762Z,9.24
2019-01-05T13:13:56.777Z,9.26
2019-01-05T13:14:56.792Z,9.23
2019-01-05T13:15:56.810Z,9.21
2019-01-05T13:16:59.389Z,9.13
2019-01-05T13:18:11.513Z,9.1
2019-01-05T13:18:56.862Z,9.04
2019-01-05T13:20:56.895Z,9.05
2019-01-05T13:21:56.919Z,9.05
2019-01-05T13:22:56.997Z,9.02
2019-01-05T13:23:56.950Z,9.04
2019-01-05T13:24:56.972Z,9.04
2019-01-05T13:26:11.646Z,8.94
2019-01-05T13:26:57.005Z,9.02
2019-01-05T13:27:57.017Z,8.95
2019-01-05T13:28:57.098Z,8.91
2019-01-05T13:29:57.140Z,8.92
2019-01-05T13:30:57.077Z,8.98
2019-01-05T13:31:57.093Z,8.98
2019-01-05T13:32:57.104Z,8.89
2019-01-05T13:33:57.124Z,8.87
2019-01-05T13:34:57.135Z,8.83
2019-01-05T13:35:57.156Z,8.83
2019-01-05T13:37:11.840Z,8.77
2019-01-05T13:38:11.853Z,8.74
2019-01-05T13:39:11.869Z,8.76
2019-01-05T13:39:57.227Z,8.74
2019-01-05T13:40:57.241Z,8.73
2019-01-05T13:41:57.259Z,8.66
2019-01-05T13:42:57.275Z,8.61
2019-01-05T13:43:57.298Z,8.48
2019-01-05T13:44:57.310Z,8.5
2019-01-05T13:45:57.323Z,8.53
2019-01-05T13:47:03.456Z,8.47
2019-01-05T13:47:57.367Z,8.43
2019-01-05T13:48:57.376Z,8.41
2019-01-05T13:49:57.402Z,8.44
2019-01-05T13:50:57.441Z,8.3
2019-01-05T13:52:57.448Z,8.44
2019-01-05T13:53:58.781Z,8.36
2019-01-05T13:54:57.479Z,8.37
2019-01-05T13:55:57.496Z,8.25
2019-01-05T13:56:57.514Z,8.3
2019-01-05T13:58:12.190Z,8.34
2019-01-05T13:58:57.549Z,8.22
2019-01-05T13:59:57.566Z,8.26
2019-01-05T14:00:57.577Z,8.4
2019-01-05T14:01:57.597Z,8.34
2019-01-05T14:02:57.613Z,8.41
2019-01-05T14:03:57.630Z,8.37
2019-01-05T14:04:57.644Z,8.3
2019-01-05T14:05:57.668Z,8.2
2019-01-05T14:06:57.685Z,8.22
2019-01-05T14:08:12.362Z,8.22
2019-01-05T14:08:57.719Z,8.26
2019-01-05T14:09:57.727Z,8.2
2019-01-05T14:10:57.749Z,8.25
2019-01-05T14:12:12.425Z,8.26
2019-01-05T14:12:57.779Z,8.2
2019-01-05T14:14:12.459Z,8.16
2019-01-05T14:14:57.818Z,8.25
2019-01-05T14:15:57.832Z,8.26